sensor_id;sensor_type;location;lat;lon;timestamp;pressure;altitude;pressure_sealevel;temperature;humidity
83697;BME280;73677;54.530;18.484;2024-01-11T00:00:51;101895.97;;;1.15;91.63
83697;BME280;73677;54.530;18.484;2024-01-11T00:03:36;101906.22;;;1.12;91.56
83697;BME280;73677;54.530;18.484;2024-01-11T00:06:05;101926.19;;;1.20;91.35
83697;BME280;73677;54.530;18.484;2024-01-11T00:08:34;101935.91;;;1.23;91.17
83697;BME280;73677;54.530;18.484;2024-01-11T00:11:04;101938.47;;;1.15;91.49
83697;BME280;73677;54.530;18.484;2024-01-11T00:13:33;101925.75;;;1.15;90.90
83697;BME280;73677;54.530;18.484;2024-01-11T00:16:02;101941.28;;;1.13;90.87
83697;BME280;73677;54.530;18.484;2024-01-11T00:18:31;101918.22;;;1.19;91.46
83697;BME280;73677;54.530;18.484;2024-01-11T00:20:59;101902.28;;;1.25;90.32
83697;BME280;73677;54.530;18.484;2024-01-11T00:23:29;101896.56;;;1.28;90.20
83697;BME280;73677;54.530;18.484;2024-01-11T00:25:57;101878.47;;;1.29;90.00
83697;BME280;73677;54.530;18.484;2024-01-11T00:28:28;101880.75;;;1.34;89.76
83697;BME280;73677;54.530;18.484;2024-01-11T00:30:57;101879.75;;;1.35;89.86
83697;BME280;73677;54.530;18.484;2024-01-11T00:33:25;101881.63;;;1.34;89.77
83697;BME280;73677;54.530;18.484;2024-01-11T00:35:54;101889.31;;;1.29;90.03
83697;BME280;73677;54.530;18.484;2024-01-11T00:38:23;101865.50;;;1.33;89.98
83697;BME280;73677;54.530;18.484;2024-01-11T00:40:51;101867.94;;;1.36;90.09
83697;BME280;73677;54.530;18.484;2024-01-11T00:43:20;101851.69;;;1.36;89.65
83697;BME280;73677;54.530;18.484;2024-01-11T00:45:51;101848.69;;;1.29;90.14
83697;BME280;73677;54.530;18.484;2024-01-11T00:48:20;101855.81;;;1.40;90.07
83697;BME280;73677;54.530;18.484;2024-01-11T00:50:48;101867.78;;;1.37;89.99
83697;BME280;73677;54.530;18.484;2024-01-11T00:53:17;101869.50;;;1.38;89.98
83697;BME280;73677;54.530;18.484;2024-01-11T00:55:46;101874.78;;;1.49;89.50
83697;BME280;73677;54.530;18.484;2024-01-11T00:58:14;101886.59;;;1.48;89.37
83697;BME280;73677;54.530;18.484;2024-01-11T01:00:43;101902.16;;;1.46;89.57
83697;BME280;73677;54.530;18.484;2024-01-11T01:03:14;101899.88;;;1.51;89.02
83697;BME280;73677;54.530;18.484;2024-01-11T01:05:43;101916.84;;;1.53;89.27
83697;BME280;73677;54.530;18.484;2024-01-11T01:08:12;101919.97;;;1.58;88.82
83697;BME280;73677;54.530;18.484;2024-01-11T01:10:41;101878.34;;;1.40;88.56
83697;BME280;73677;54.530;18.484;2024-01-11T01:13:10;101894.59;;;1.50;88.82
83697;BME280;73677;54.530;18.484;2024-01-11T01:15:39;101899.47;;;1.56;89.16
83697;BME280;73677;54.530;18.484;2024-01-11T01:18:07;101879.63;;;1.65;88.44
83697;BME280;73677;54.530;18.484;2024-01-11T01:20:37;101867.50;;;1.59;88.64
83697;BME280;73677;54.530;18.484;2024-01-11T01:23:06;101846.81;;;1.58;88.57
83697;BME280;73677;54.530;18.484;2024-01-11T01:25:35;101836.41;;;1.54;88.31
83697;BME280;73677;54.530;18.484;2024-01-11T01:28:04;101829.88;;;1.56;88.46
83697;BME280;73677;54.530;18.484;2024-01-11T01:30:32;101809.75;;;1.49;88.58
83697;BME280;73677;54.530;18.484;2024-01-11T01:33:02;101819.44;;;1.52;88.69
83697;BME280;73677;54.530;18.484;2024-01-11T01:35:30;101832.97;;;1.52;88.72
83697;BME280;73677;54.530;18.484;2024-01-11T01:38:01;101834.13;;;1.49;88.21
83697;BME280;73677;54.530;18.484;2024-01-11T01:40:30;101822.16;;;1.52;88.23
83697;BME280;73677;54.530;18.484;2024-01-11T01:42:59;101763.88;;;1.19;87.87
83697;BME280;73677;54.530;18.484;2024-01-11T01:45:28;101810.63;;;1.50;87.65
83697;BME280;73677;54.530;18.484;2024-01-11T01:47:56;101803.63;;;1.47;87.99
83697;BME280;73677;54.530;18.484;2024-01-11T01:50:26;101808.19;;;1.47;88.21
83697;BME280;73677;54.530;18.484;2024-01-11T01:52:55;101815.59;;;1.45;88.61
83697;BME280;73677;54.530;18.484;2024-01-11T01:55:25;101813.91;;;1.34;88.46
83697;BME280;73677;54.530;18.484;2024-01-11T01:57:55;101819.88;;;1.38;88.64
83697;BME280;73677;54.530;18.484;2024-01-11T02:00:26;101825.16;;;1.39;88.47
83697;BME280;73677;54.530;18.484;2024-01-11T02:02:55;101810.47;;;1.32;88.53
83697;BME280;73677;54.530;18.484;2024-01-11T02:05:25;101792.78;;;1.38;88.16
83697;BME280;73677;54.530;18.484;2024-01-11T02:07:54;101777.69;;;1.35;88.75
83697;BME280;73677;54.530;18.484;2024-01-11T02:10:25;101775.53;;;1.39;88.59
83697;BME280;73677;54.530;18.484;2024-01-11T02:12:54;101764.72;;;1.29;88.58
83697;BME280;73677;54.530;18.484;2024-01-11T02:15:23;101771.41;;;1.35;88.12
83697;BME280;73677;54.530;18.484;2024-01-11T02:17:52;101766.69;;;1.37;88.32
83697;BME280;73677;54.530;18.484;2024-01-11T02:20:20;101765.16;;;1.34;87.98
83697;BME280;73677;54.530;18.484;2024-01-11T02:22:53;101754.88;;;1.28;87.89
83697;BME280;73677;54.530;18.484;2024-01-11T02:25:23;101767.31;;;1.31;88.54
83697;BME280;73677;54.530;18.484;2024-01-11T02:27:52;101773.28;;;1.34;88.61
83697;BME280;73677;54.530;18.484;2024-01-11T02:30:20;101768.84;;;1.43;88.54
83697;BME280;73677;54.530;18.484;2024-01-11T02:32:50;101769.41;;;1.37;87.88
83697;BME280;73677;54.530;18.484;2024-01-11T02:35:19;101757.59;;;1.28;88.03
83697;BME280;73677;54.530;18.484;2024-01-11T02:37:48;101761.56;;;1.43;87.97
83697;BME280;73677;54.530;18.484;2024-01-11T02:40:18;101748.03;;;1.43;88.54
83697;BME280;73677;54.530;18.484;2024-01-11T02:42:49;101726.91;;;1.37;88.40
83697;BME280;73677;54.530;18.484;2024-01-11T02:45:18;101731.22;;;1.40;88.27
83697;BME280;73677;54.530;18.484;2024-01-11T02:47:47;101719.94;;;1.44;88.28
83697;BME280;73677;54.530;18.484;2024-01-11T02:50:16;101707.97;;;1.37;88.22
83697;BME280;73677;54.530;18.484;2024-01-11T02:52:45;101704.56;;;1.35;88.48
83697;BME280;73677;54.530;18.484;2024-01-11T02:55:13;101718.09;;;1.35;88.54
83697;BME280;73677;54.530;18.484;2024-01-11T02:57:42;101725.50;;;1.33;88.31
83697;BME280;73677;54.530;18.484;2024-01-11T03:00:13;101725.41;;;1.25;88.59
83697;BME280;73677;54.530;18.484;2024-01-11T03:02:41;101716.25;;;1.26;88.50
83697;BME280;73677;54.530;18.484;2024-01-11T03:05:11;101713.41;;;1.18;88.62
83697;BME280;73677;54.530;18.484;2024-01-11T03:07:40;101704.44;;;1.08;89.11
83697;BME280;73677;54.530;18.484;2024-01-11T03:10:09;101729.53;;;1.19;89.13
83697;BME280;73677;54.530;18.484;2024-01-11T03:12:39;101725.25;;;1.17;89.19
83697;BME280;73677;54.530;18.484;2024-01-11T03:15:08;101728.38;;;1.22;88.92
83697;BME280;73677;54.530;18.484;2024-01-11T03:17:38;101728.66;;;1.19;89.11
83697;BME280;73677;54.530;18.484;2024-01-11T03:20:08;101733.22;;;1.18;89.29
83697;BME280;73677;54.530;18.484;2024-01-11T03:22:36;101718.69;;;1.19;89.22
83697;BME280;73677;54.530;18.484;2024-01-11T03:25:05;101714.41;;;1.17;89.12
83697;BME280;73677;54.530;18.484;2024-01-11T03:27:34;101706.44;;;1.25;89.01
83697;BME280;73677;54.530;18.484;2024-01-11T03:30:03;101726.25;;;1.25;88.79
83697;BME280;73677;54.530;18.484;2024-01-11T03:32:33;101730.22;;;1.31;88.94
83697;BME280;73677;54.530;18.484;2024-01-11T03:35:03;101726.94;;;1.27;88.88
83697;BME280;73677;54.530;18.484;2024-01-11T03:37:32;101729.66;;;1.27;88.66
83697;BME280;73677;54.530;18.484;2024-01-11T03:40:01;101726.66;;;1.21;89.04
83697;BME280;73677;54.530;18.484;2024-01-11T03:42:29;101729.38;;;1.21;89.02
83697;BME280;73677;54.530;18.484;2024-01-11T03:44:58;101728.97;;;1.25;89.02
83697;BME280;73677;54.530;18.484;2024-01-11T03:47:27;101731.81;;;1.24;89.01
83697;BME280;73677;54.530;18.484;2024-01-11T03:49:55;101734.94;;;1.29;89.37
83697;BME280;73677;54.530;18.484;2024-01-11T03:52:25;101713.69;;;1.34;88.70
83697;BME280;73677;54.530;18.484;2024-01-11T03:54:54;101723.94;;;1.40;88.56
83697;BME280;73677;54.530;18.484;2024-01-11T03:57:23;101719.94;;;1.44;88.38
83697;BME280;73677;54.530;18.484;2024-01-11T03:59:51;101713.53;;;1.45;88.47
83697;BME280;73677;54.530;18.484;2024-01-11T04:02:20;101718.94;;;1.45;88.12
83697;BME280;73677;54.530;18.484;2024-01-11T04:04:49;101712.09;;;1.51;88.43
83697;BME280;73677;54.530;18.484;2024-01-11T04:07:18;101700.41;;;1.50;88.37
83697;BME280;73677;54.530;18.484;2024-01-11T04:09:48;101698.13;;;1.46;88.63
83697;BME280;73677;54.530;18.484;2024-01-11T04:12:16;101696.69;;;1.42;88.08
83697;BME280;73677;54.530;18.484;2024-01-11T04:14:45;101685.03;;;1.41;88.19
83697;BME280;73677;54.530;18.484;2024-01-11T04:17:14;101681.72;;;1.47;88.58
83697;BME280;73677;54.530;18.484;2024-01-11T04:19:43;101691.84;;;1.45;88.06
83697;BME280;73677;54.530;18.484;2024-01-11T04:22:11;101687.53;;;1.52;87.51
83697;BME280;73677;54.530;18.484;2024-01-11T04:24:42;101681.84;;;1.55;88.00
83697;BME280;73677;54.530;18.484;2024-01-11T04:27:12;101619.78;;;1.25;88.16
83697;BME280;73677;54.530;18.484;2024-01-11T04:29:40;101665.59;;;1.55;87.92
83697;BME280;73677;54.530;18.484;2024-01-11T04:32:09;101657.16;;;1.58;87.93
83697;BME280;73677;54.530;18.484;2024-01-11T04:34:38;101663.31;;;1.51;87.85
83697;BME280;73677;54.530;18.484;2024-01-11T04:37:07;101666.03;;;1.51;88.10
83697;BME280;73677;54.530;18.484;2024-01-11T04:39:35;101658.03;;;1.49;87.78
83697;BME280;73677;54.530;18.484;2024-01-11T04:42:04;101662.28;;;1.52;88.01
83697;BME280;73677;54.530;18.484;2024-01-11T04:44:34;101663.16;;;1.52;87.58
83697;BME280;73677;54.530;18.484;2024-01-11T04:47:03;101670.69;;;1.58;87.80
83697;BME280;73677;54.530;18.484;2024-01-11T04:49:32;101658.16;;;1.57;88.03
83697;BME280;73677;54.530;18.484;2024-01-11T04:52:00;101650.88;;;1.58;87.79
83697;BME280;73677;54.530;18.484;2024-01-11T04:54:29;101639.31;;;1.65;87.54
83697;BME280;73677;54.530;18.484;2024-01-11T04:56:58;101636.06;;;1.62;87.73
83697;BME280;73677;54.530;18.484;2024-01-11T04:59:27;101645.00;;;1.62;87.79
83697;BME280;73677;54.530;18.484;2024-01-11T05:01:57;101651.44;;;1.61;88.27
83697;BME280;73677;54.530;18.484;2024-01-11T05:04:26;101650.69;;;1.69;87.42
83697;BME280;73677;54.530;18.484;2024-01-11T05:06:55;101599.47;;;1.39;87.54
83697;BME280;73677;54.530;18.484;2024-01-11T05:09:25;101669.81;;;1.67;87.47
83697;BME280;73677;54.530;18.484;2024-01-11T05:11:54;101638.38;;;1.47;88.06
83697;BME280;73677;54.530;18.484;2024-01-11T05:14:22;101671.56;;;1.59;87.95
83697;BME280;73677;54.530;18.484;2024-01-11T05:16:51;101666.94;;;1.69;87.51
83697;BME280;73677;54.530;18.484;2024-01-11T05:19:21;101654.72;;;1.65;87.73
83697;BME280;73677;54.530;18.484;2024-01-11T05:21:50;101647.56;;;1.64;87.62
83697;BME280;73677;54.530;18.484;2024-01-11T05:24:18;101648.47;;;1.55;87.69
83697;BME280;73677;54.530;18.484;2024-01-11T05:26:47;101670.84;;;1.66;87.44
83697;BME280;73677;54.530;18.484;2024-01-11T05:29:16;101673.22;;;1.69;87.56
83697;BME280;73677;54.530;18.484;2024-01-11T05:31:45;101670.34;;;1.81;87.64
83697;BME280;73677;54.530;18.484;2024-01-11T05:34:13;101633.47;;;1.60;87.36
83697;BME280;73677;54.530;18.484;2024-01-11T05:36:55;101633.31;;;1.72;87.25
83697;BME280;73677;54.530;18.484;2024-01-11T05:39:27;101650.66;;;1.79;87.46
83697;BME280;73677;54.530;18.484;2024-01-11T05:41:55;101659.19;;;1.84;87.38
83697;BME280;73677;54.530;18.484;2024-01-11T05:44:24;101651.06;;;1.84;86.96
83697;BME280;73677;54.530;18.484;2024-01-11T05:46:53;101652.09;;;1.73;87.34
83697;BME280;73677;54.530;18.484;2024-01-11T05:49:22;101649.69;;;1.70;87.55
83697;BME280;73677;54.530;18.484;2024-01-11T05:51:52;101664.81;;;1.73;87.12
83697;BME280;73677;54.530;18.484;2024-01-11T05:54:20;101650.44;;;1.62;87.87
83697;BME280;73677;54.530;18.484;2024-01-11T05:56:49;101663.38;;;1.68;87.84
83697;BME280;73677;54.530;18.484;2024-01-11T05:59:22;101658.69;;;1.70;87.63
83697;BME280;73677;54.530;18.484;2024-01-11T06:01:51;101669.22;;;1.74;87.20
83697;BME280;73677;54.530;18.484;2024-01-11T06:04:20;101664.97;;;1.71;87.77
83697;BME280;73677;54.530;18.484;2024-01-11T06:06:48;101660.41;;;1.72;87.41
83697;BME280;73677;54.530;18.484;2024-01-11T06:09:18;101658.69;;;1.70;87.72
83697;BME280;73677;54.530;18.484;2024-01-11T06:11:47;101650.75;;;1.59;87.51
83697;BME280;73677;54.530;18.484;2024-01-11T06:14:16;101624.69;;;1.49;87.09
83697;BME280;73677;54.530;18.484;2024-01-11T06:16:45;101629.16;;;1.67;87.27
83697;BME280;73677;54.530;18.484;2024-01-11T06:19:14;101627.75;;;1.63;87.51
83697;BME280;73677;54.530;18.484;2024-01-11T06:21:43;101622.59;;;1.70;87.57
83697;BME280;73677;54.530;18.484;2024-01-11T06:24:11;101627.88;;;1.72;87.11
83697;BME280;73677;54.530;18.484;2024-01-11T06:26:41;101624.94;;;1.55;87.89
83697;BME280;73677;54.530;18.484;2024-01-11T06:29:10;101611.28;;;1.47;87.87
83697;BME280;73677;54.530;18.484;2024-01-11T06:31:39;101629.47;;;1.64;87.39
83697;BME280;73677;54.530;18.484;2024-01-11T06:34:07;101642.88;;;1.66;87.39
83697;BME280;73677;54.530;18.484;2024-01-11T06:36:36;101652.00;;;1.65;87.16
83697;BME280;73677;54.530;18.484;2024-01-11T06:39:04;101603.03;;;1.39;87.72
83697;BME280;73677;54.530;18.484;2024-01-11T06:41:33;101650.19;;;1.56;87.79
83697;BME280;73677;54.530;18.484;2024-01-11T06:44:03;101660.69;;;1.68;87.67
83697;BME280;73677;54.530;18.484;2024-01-11T06:46:32;101656.69;;;1.73;87.35
83697;BME280;73677;54.530;18.484;2024-01-11T06:49:03;101656.13;;;1.69;87.47
83697;BME280;73677;54.530;18.484;2024-01-11T06:51:32;101665.50;;;1.75;87.03
83697;BME280;73677;54.530;18.484;2024-01-11T06:54:00;101658.09;;;1.77;86.89
83697;BME280;73677;54.530;18.484;2024-01-11T06:56:29;101657.28;;;1.66;87.55
83697;BME280;73677;54.530;18.484;2024-01-11T06:58:58;101662.25;;;1.71;87.48
83697;BME280;73677;54.530;18.484;2024-01-11T07:01:28;101678.97;;;1.66;87.85
83697;BME280;73677;54.530;18.484;2024-01-11T07:03:56;101677.25;;;1.65;87.91
83697;BME280;73677;54.530;18.484;2024-01-11T07:06:25;101681.81;;;1.65;87.58
83697;BME280;73677;54.530;18.484;2024-01-11T07:08:54;101692.78;;;1.63;87.93
83697;BME280;73677;54.530;18.484;2024-01-11T07:11:23;101675.53;;;1.64;87.96
83697;BME280;73677;54.530;18.484;2024-01-11T07:13:52;101681.50;;;1.68;87.50
83697;BME280;73677;54.530;18.484;2024-01-11T07:16:21;101665.66;;;1.73;87.40
83697;BME280;73677;54.530;18.484;2024-01-11T07:18:51;101670.66;;;1.68;87.91
83697;BME280;73677;54.530;18.484;2024-01-11T07:21:21;101601.06;;;1.32;87.61
83697;BME280;73677;54.530;18.484;2024-01-11T07:23:56;101674.22;;;1.68;87.44
83697;BME280;73677;54.530;18.484;2024-01-11T07:26:26;101667.81;;;1.69;87.09
83697;BME280;73677;54.530;18.484;2024-01-11T07:28:55;101674.09;;;1.70;87.40
83697;BME280;73677;54.530;18.484;2024-01-11T07:31:24;101674.75;;;1.82;86.66
83697;BME280;73677;54.530;18.484;2024-01-11T07:33:54;101674.03;;;1.80;87.06
83697;BME280;73677;54.530;18.484;2024-01-11T07:36:23;101666.78;;;1.80;86.89
83697;BME280;73677;54.530;18.484;2024-01-11T07:38:52;101671.47;;;1.88;86.88
83697;BME280;73677;54.530;18.484;2024-01-11T07:41:21;101680.19;;;1.82;87.33
83697;BME280;73677;54.530;18.484;2024-01-11T07:43:50;101657.38;;;1.75;87.11
83697;BME280;73677;54.530;18.484;2024-01-11T07:46:21;101680.22;;;1.99;86.75
83697;BME280;73677;54.530;18.484;2024-01-11T07:49:06;101674.66;;;2.01;86.64
83697;BME280;73677;54.530;18.484;2024-01-11T07:51:35;101679.09;;;2.02;86.14
83697;BME280;73677;54.530;18.484;2024-01-11T07:54:04;101677.31;;;2.10;85.98
83697;BME280;73677;54.530;18.484;2024-01-11T07:56:33;101674.47;;;2.12;85.91
83697;BME280;73677;54.530;18.484;2024-01-11T07:59:02;101681.03;;;2.09;85.74
83697;BME280;73677;54.530;18.484;2024-01-11T08:01:31;101670.50;;;2.06;86.05
83697;BME280;73677;54.530;18.484;2024-01-11T08:04:02;101684.53;;;2.29;85.34
83697;BME280;73677;54.530;18.484;2024-01-11T08:06:33;101682.00;;;2.18;85.89
83697;BME280;73677;54.530;18.484;2024-01-11T08:09:01;101689.88;;;2.39;85.13
83697;BME280;73677;54.530;18.484;2024-01-11T08:11:32;101687.09;;;2.48;85.07
83697;BME280;73677;54.530;18.484;2024-01-11T08:14:04;101672.13;;;2.44;84.36
83697;BME280;73677;54.530;18.484;2024-01-11T08:16:33;101671.31;;;2.62;84.52
83697;BME280;73677;54.530;18.484;2024-01-11T08:19:02;101668.28;;;2.65;84.17
83697;BME280;73677;54.530;18.484;2024-01-11T08:21:32;101674.72;;;2.64;84.20
83697;BME280;73677;54.530;18.484;2024-01-11T08:24:01;101658.88;;;2.59;84.03
83697;BME280;73677;54.530;18.484;2024-01-11T08:26:30;101655.56;;;2.65;84.12
83697;BME280;73677;54.530;18.484;2024-01-11T08:28:59;101656.09;;;2.69;84.23
83697;BME280;73677;54.530;18.484;2024-01-11T08:31:28;101626.47;;;2.58;83.46
83697;BME280;73677;54.530;18.484;2024-01-11T08:33:56;101655.47;;;2.75;83.84
83697;BME280;73677;54.530;18.484;2024-01-11T08:36:30;101658.34;;;2.91;82.98
83697;BME280;73677;54.530;18.484;2024-01-11T08:39:01;101663.63;;;2.92;82.79
83697;BME280;73677;54.530;18.484;2024-01-11T08:41:33;101666.88;;;2.96;82.84
83697;BME280;73677;54.530;18.484;2024-01-11T08:44:02;101649.88;;;2.94;83.26
83697;BME280;73677;54.530;18.484;2024-01-11T08:46:33;101645.91;;;2.88;83.25
83697;BME280;73677;54.530;18.484;2024-01-11T08:49:02;101634.91;;;2.90;82.99
83697;BME280;73677;54.530;18.484;2024-01-11T08:51:31;101660.63;;;3.21;82.59
83697;BME280;73677;54.530;18.484;2024-01-11T08:54:02;101657.81;;;3.31;82.15
83697;BME280;73677;54.530;18.484;2024-01-11T08:56:31;101656.91;;;3.22;82.27
83697;BME280;73677;54.530;18.484;2024-01-11T08:59:00;101658.72;;;3.39;81.43
83697;BME280;73677;54.530;18.484;2024-01-11T09:01:29;101648.66;;;3.32;81.45
83697;BME280;73677;54.530;18.484;2024-01-11T09:03:59;101633.03;;;3.08;81.73
83697;BME280;73677;54.530;18.484;2024-01-11T09:06:28;101661.63;;;3.20;82.09
83697;BME280;73677;54.530;18.484;2024-01-11T09:08:56;101644.19;;;3.05;82.74
83697;BME280;73677;54.530;18.484;2024-01-11T09:11:27;101657.78;;;3.05;82.57
83697;BME280;73677;54.530;18.484;2024-01-11T09:13:55;101660.34;;;3.07;82.46
83697;BME280;73677;54.530;18.484;2024-01-11T09:16:25;101679.75;;;3.37;82.37
83697;BME280;73677;54.530;18.484;2024-01-11T09:18:53;101637.78;;;3.32;80.98
83697;BME280;73677;54.530;18.484;2024-01-11T09:21:22;101667.44;;;3.51;81.32
83697;BME280;73677;54.530;18.484;2024-01-11T09:23:51;101670.63;;;3.38;81.76
83697;BME280;73677;54.530;18.484;2024-01-11T09:26:20;101661.56;;;3.56;81.13
83697;BME280;73677;54.530;18.484;2024-01-11T09:28:51;101663.03;;;3.76;80.79
83697;BME280;73677;54.530;18.484;2024-01-11T09:31:19;101652.69;;;3.79;80.32
83697;BME280;73677;54.530;18.484;2024-01-11T09:33:48;101657.69;;;3.92;79.71
83697;BME280;73677;54.530;18.484;2024-01-11T09:36:18;101672.38;;;4.15;79.08
83697;BME280;73677;54.530;18.484;2024-01-11T09:38:46;101664.28;;;4.40;77.41
83697;BME280;73677;54.530;18.484;2024-01-11T09:41:16;101666.03;;;4.49;77.49
83697;BME280;73677;54.530;18.484;2024-01-11T09:43:45;101669.38;;;4.35;78.11
83697;BME280;73677;54.530;18.484;2024-01-11T09:46:19;101665.50;;;3.95;79.51
83697;BME280;73677;54.530;18.484;2024-01-11T09:48:49;101663.19;;;3.74;80.79
83697;BME280;73677;54.530;18.484;2024-01-11T09:51:19;101663.69;;;3.70;82.53
83697;BME280;73677;54.530;18.484;2024-01-11T09:53:50;101666.81;;;3.57;81.72
83697;BME280;73677;54.530;18.484;2024-01-11T09:56:20;101662.88;;;3.52;82.11
83697;BME280;73677;54.530;18.484;2024-01-11T09:58:49;101664.84;;;3.67;81.17
83697;BME280;73677;54.530;18.484;2024-01-11T10:01:19;101666.28;;;3.79;81.01
83697;BME280;73677;54.530;18.484;2024-01-11T10:03:49;101661.41;;;3.91;80.21
83697;BME280;73677;54.530;18.484;2024-01-11T10:06:18;101659.63;;;4.08;80.11
83697;BME280;73677;54.530;18.484;2024-01-11T10:08:47;101651.53;;;3.90;79.87
83697;BME280;73677;54.530;18.484;2024-01-11T10:11:16;101671.16;;;4.02;79.85
83697;BME280;73677;54.530;18.484;2024-01-11T10:13:46;101668.44;;;4.02;79.56
83697;BME280;73677;54.530;18.484;2024-01-11T10:16:14;101676.34;;;3.87;80.49
83697;BME280;73677;54.530;18.484;2024-01-11T10:18:45;101674.22;;;3.73;80.79
83697;BME280;73677;54.530;18.484;2024-01-11T10:21:14;101676.63;;;3.76;81.70
83697;BME280;73677;54.530;18.484;2024-01-11T10:23:42;101682.09;;;3.84;80.99
83697;BME280;73677;54.530;18.484;2024-01-11T10:26:11;101666.22;;;3.46;82.73
83697;BME280;73677;54.530;18.484;2024-01-11T10:28:43;101660.78;;;3.46;82.00
83697;BME280;73677;54.530;18.484;2024-01-11T10:31:13;101646.19;;;3.47;81.61
83697;BME280;73677;54.530;18.484;2024-01-11T10:33:42;101663.06;;;3.50;82.00
83697;BME280;73677;54.530;18.484;2024-01-11T10:36:13;101651.34;;;3.58;82.33
83697;BME280;73677;54.530;18.484;2024-01-11T10:38:42;101647.66;;;3.67;81.96
83697;BME280;73677;54.530;18.484;2024-01-11T10:41:18;101656.75;;;3.75;81.32
83697;BME280;73677;54.530;18.484;2024-01-11T10:43:48;101648.22;;;3.70;82.00
83697;BME280;73677;54.530;18.484;2024-01-11T10:46:19;101668.84;;;3.81;81.23
83697;BME280;73677;54.530;18.484;2024-01-11T10:48:55;101662.91;;;3.86;81.06
83697;BME280;73677;54.530;18.484;2024-01-11T10:51:28;101670.25;;;3.93;80.90
83697;BME280;73677;54.530;18.484;2024-01-11T10:54:00;101678.09;;;3.96;81.50
83697;BME280;73677;54.530;18.484;2024-01-11T10:56:30;101679.75;;;3.89;81.70
83697;BME280;73677;54.530;18.484;2024-01-11T10:59:00;101684.78;;;3.76;82.02
83697;BME280;73677;54.530;18.484;2024-01-11T11:01:30;101688.00;;;3.71;82.65
83697;BME280;73677;54.530;18.484;2024-01-11T11:03:59;101687.72;;;3.57;83.55
83697;BME280;73677;54.530;18.484;2024-01-11T11:06:31;101687.03;;;3.55;84.05
83697;BME280;73677;54.530;18.484;2024-01-11T11:09:01;101684.63;;;3.52;83.90
83697;BME280;73677;54.530;18.484;2024-01-11T11:11:31;101682.53;;;3.46;83.74
83697;BME280;73677;54.530;18.484;2024-01-11T11:14:00;101691.38;;;3.48;84.65
83697;BME280;73677;54.530;18.484;2024-01-11T11:16:30;101690.06;;;3.52;84.24
83697;BME280;73677;54.530;18.484;2024-01-11T11:18:58;101686.97;;;3.47;85.14
83697;BME280;73677;54.530;18.484;2024-01-11T11:21:27;101679.00;;;3.45;85.24
83697;BME280;73677;54.530;18.484;2024-01-11T11:23:58;101670.03;;;3.53;85.46
83697;BME280;73677;54.530;18.484;2024-01-11T11:26:27;101674.56;;;3.44;85.10
83697;BME280;73677;54.530;18.484;2024-01-11T11:28:57;101654.34;;;3.21;86.73
83697;BME280;73677;54.530;18.484;2024-01-11T11:31:36;101669.47;;;3.23;87.01
83697;BME280;73677;54.530;18.484;2024-01-11T11:34:05;101661.97;;;3.17;86.97
83697;BME280;73677;54.530;18.484;2024-01-11T11:36:34;101661.53;;;3.30;86.65
83697;BME280;73677;54.530;18.484;2024-01-11T11:39:04;101661.59;;;3.38;86.82
83697;BME280;73677;54.530;18.484;2024-01-11T11:41:35;101659.47;;;3.50;86.82
83697;BME280;73677;54.530;18.484;2024-01-11T11:44:06;101664.66;;;3.61;86.20
83697;BME280;73677;54.530;18.484;2024-01-11T11:46:36;101659.50;;;3.58;86.05
83697;BME280;73677;54.530;18.484;2024-01-11T11:49:04;101662.94;;;3.60;85.98
83697;BME280;73677;54.530;18.484;2024-01-11T11:51:35;101663.56;;;3.54;85.97
83697;BME280;73677;54.530;18.484;2024-01-11T11:54:05;101669.53;;;3.57;86.03
83697;BME280;73677;54.530;18.484;2024-01-11T11:56:37;101664.81;;;3.59;85.98
83697;BME280;73677;54.530;18.484;2024-01-11T11:59:06;101662.44;;;3.64;85.91
83697;BME280;73677;54.530;18.484;2024-01-11T12:01:37;101654.19;;;3.74;85.87
83697;BME280;73677;54.530;18.484;2024-01-11T12:04:08;101658.38;;;3.68;85.58
83697;BME280;73677;54.530;18.484;2024-01-11T12:06:37;101655.31;;;3.63;85.61
83697;BME280;73677;54.530;18.484;2024-01-11T12:09:07;101666.19;;;3.63;85.58
83697;BME280;73677;54.530;18.484;2024-01-11T12:11:36;101667.31;;;3.53;86.00
83697;BME280;73677;54.530;18.484;2024-01-11T12:14:04;101656.75;;;3.50;86.35
83697;BME280;73677;54.530;18.484;2024-01-11T12:16:33;101666.56;;;3.42;86.39
83697;BME280;73677;54.530;18.484;2024-01-11T12:19:02;101666.88;;;3.39;86.57
83697;BME280;73677;54.530;18.484;2024-01-11T12:21:31;101653.22;;;3.31;86.95
83697;BME280;73677;54.530;18.484;2024-01-11T12:24:00;101645.16;;;3.39;86.67
83697;BME280;73677;54.530;18.484;2024-01-11T12:26:30;101643.97;;;3.42;86.52
83697;BME280;73677;54.530;18.484;2024-01-11T12:28:59;101645.06;;;3.57;86.47
83697;BME280;73677;54.530;18.484;2024-01-11T12:31:29;101661.44;;;3.65;86.51
83697;BME280;73677;54.530;18.484;2024-01-11T12:33:58;101667.00;;;3.56;86.04
83697;BME280;73677;54.530;18.484;2024-01-11T12:36:28;101665.91;;;3.49;86.32
83697;BME280;73677;54.530;18.484;2024-01-11T12:38:57;101667.56;;;3.41;87.07
83697;BME280;73677;54.530;18.484;2024-01-11T12:41:26;101679.81;;;3.46;86.79
83697;BME280;73677;54.530;18.484;2024-01-11T12:43:57;101660.47;;;3.49;86.32
83697;BME280;73677;54.530;18.484;2024-01-11T12:46:26;101629.78;;;3.30;86.74
83697;BME280;73677;54.530;18.484;2024-01-11T12:48:54;101655.16;;;3.39;87.10
83697;BME280;73677;54.530;18.484;2024-01-11T12:51:25;101664.69;;;3.43;86.91
83697;BME280;73677;54.530;18.484;2024-01-11T12:53:57;101652.06;;;3.60;86.72
83697;BME280;73677;54.530;18.484;2024-01-11T12:56:27;101653.94;;;3.59;86.68
83697;BME280;73677;54.530;18.484;2024-01-11T12:59:07;101646.06;;;3.56;86.27
83697;BME280;73677;54.530;18.484;2024-01-11T13:01:36;101655.94;;;3.57;86.32